Time,TemperatureF,DewpointF,PressureIn,WindDirection,WindDirectionDegrees,WindSpeedMPH,WindSpeedGustMPH,Humidity,HourlyPrecipIn,Conditions,Clouds,dailyrainin,SoftwareType,DateUTC
2013-03-04 00:00:00,25.4,19.8,22.74,West,279,5.8,5.8,79,0.00,RA,,0.00,WeatherDisplay:10.37,2013-03-04 05:00:00,
2013-03-04 00:05:00,25.3,19.4,22.74,NW,304,0.0,0.0,78,0.00,RA,,0.00,WeatherDisplay:10.37,2013-03-04 05:05:00,
2013-03-04 00:10:00,25.2,19.3,22.74,West,279,3.5,3.5,78,0.00,CLR,,0.00,WeatherDisplay:10.37,2013-03-04 05:10:00,
2013-03-04 00:15:00,25.3,19.4,22.74,West,275,3.5,3.5,78,0.00,CLR,,0.00,WeatherDisplay:10.37,2013-03-04 05:15:00,
2013-03-04 00:20:00,25.3,19.7,22.74,West,275,3.5,3.5,79,0.00,CLR,,0.00,WeatherDisplay:10.37,2013-03-04 05:20:00,
2013-03-04 00:25:00,25.3,19.7,22.74,West,275,1.1,0.0,79,0.00,CLR,,0.00,WeatherDisplay:10.37,2013-03-04 05:25:00,
2013-03-04 00:30:00,25.3,19.4,22.74,West,275,5.8,5.8,78,0.00,CLR,,0.00,WeatherDisplay:10.37,2013-03-04 05:30:00,
2013-03-04 00:35:00,25.2,19.0,22.74,West,275,2.3,2.3,77,0.00,CLR,,0.00,WeatherDisplay:10.37,2013-03-04 05:35:00,
2013-03-04 00:40:00,25.2,19.0,22.74,West,275,4.6,4.6,77,0.00,CLR,,0.00,WeatherDisplay:10.37,2013-03-04 05:40:00,
2013-03-04 00:45:00,25.1,20.7,22.74,West,274,3.5,3.5,83,0.00,CLR,,0.00,WeatherDisplay:10.37,2013-03-04 05:45:00,
2013-03-04 00:50:00,25.1,18.9,22.74,West,274,0.0,0.0,77,0.00,CLR,,0.00,WeatherDisplay:10.37,2013-03-04 05:50:00,
2013-03-04 00:55:00,25.0,18.5,22.74,West,274,6.9,6.9,76,0.00,CLR,,0.00,WeatherDisplay:10.37,2013-03-04 05:55:00,
2013-03-04 01:00:00,25.0,18.5,22.74,West,274,3.5,3.5,76,0.00,CLR,,0.00,WeatherDisplay:10.37,2013-03-04 06:00:00,
2013-03-04 01:05:00,24.9,18.4,22.74,West,273,0.0,0.0,76,0.00,CLR,,0.00,WeatherDisplay:10.37,2013-03-04 06:05:00,
2013-03-04 01:10:00,24.9,18.4,22.74,West,274,0.0,0.0,76,0.00,CLR,,0.00,WeatherDisplay:10.37,2013-03-04 06:10:00,
2013-03-04 01:15:00,24.8,18.3,22.74,West,279,6.9,6.9,76,0.00,CLR,,0.00,WeatherDisplay:10.37,2013-03-04 06:15:00,
2013-03-04 01:20:00,24.8,18.0,22.74,West,264,6.9,6.9,75,0.00,CLR,,0.00,WeatherDisplay:10.37,2013-03-04 06:20:00,
2013-03-04 01:25:00,24.8,18.0,22.74,NW,305,5.8,5.8,75,0.00,CLR,,0.00,WeatherDisplay:10.37,2013-03-04 06:25:00,
2013-03-04 01:30:00,24.7,17.6,22.74,WNW,284,3.5,3.5,74,0.00,CLR,,0.00,WeatherDisplay:10.37,2013-03-04 06:30:00,
2013-03-04 01:35:00,24.6,17.2,22.74,West,276,7.0,7.0,73,0.00,CLR,,0.00,WeatherDisplay:10.37,2013-03-04 06:35:00,
2013-03-04 01:40:00,24.5,17.1,22.74,WSW,253,3.5,3.5,73,0.00,CLR,,0.00,WeatherDisplay:10.37,2013-03-04 06:40:00,
2013-03-04 01:45:00,24.5,17.1,22.74,WNW,287,0.0,0.0,73,0.00,CLR,,0.00,WeatherDisplay:10.37,2013-03-04 06:45:00,
2013-03-04 01:50:00,24.3,16.2,22.74,West,261,6.0,6.0,71,0.00,CLR,,0.00,WeatherDisplay:10.37,2013-03-04 06:50:00,
2013-03-04 01:55:00,24.2,15.8,22.74,West,272,5.8,5.8,70,0.00,CLR,,0.00,WeatherDisplay:10.37,2013-03-04 06:55:00,
2013-03-04 02:00:00,24.2,16.5,22.74,West,273,6.9,6.9,72,0.00,CLR,,0.00,WeatherDisplay:10.37,2013-03-04 07:00:00,
2013-03-04 02:05:00,24.0,16.3,22.74,West,268,7.0,7.0,72,0.00,CLR,,0.00,WeatherDisplay:10.37,2013-03-04 07:05:00,
2013-03-04 02:10:00,23.9,15.9,22.74,WNW,300,8.1,8.1,71,0.00,CLR,,0.00,WeatherDisplay:10.37,2013-03-04 07:10:00,
2013-03-04 02:15:00,23.7,15.7,22.74,WSW,242,2.0,0.0,71,0.00,CLR,,0.00,WeatherDisplay:10.37,2013-03-04 07:15:00,
2013-03-04 02:20:00,23.5,15.8,22.74,NW,319,2.3,2.3,72,0.00,CLR,,0.00,WeatherDisplay:10.37,2013-03-04 07:20:00,
2013-03-04 02:25:00,23.4,15.7,22.74,NW,304,2.3,0.0,72,0.00,CLR,,0.00,WeatherDisplay:10.37,2013-03-04 07:25:00,
2013-03-04 02:30:00,23.4,15.7,22.74,WNW,302,3.5,3.5,72,0.00,CLR,,0.00,WeatherDisplay:10.37,2013-03-04 07:30:00,
2013-03-04 02:35:00,23.4,16.0,22.74,NE,41,1.1,0.0,73,0.00,CLR,,0.00,WeatherDisplay:10.37,2013-03-04 07:35:00,
2013-03-04 02:40:00,23.4,16.3,22.74,WNW,296,0.0,0.0,74,0.00,CLR,,0.00,WeatherDisplay:10.37,2013-03-04 07:40:00,
2013-03-04 02:45:00,23.4,16.0,22.74,WSW,241,0.0,0.0,73,0.00,CLR,,0.00,WeatherDisplay:10.37,2013-03-04 07:45:00,
2013-03-04 02:50:00,23.4,16.9,22.74,NNW,327,0.0,0.0,76,0.00,CLR,,0.00,WeatherDisplay:10.37,2013-03-04 07:50:00,
2013-03-04 02:55:00,23.3,15.6,22.74,WNW,302,0.0,0.0,72,0.00,CLR,,0.00,WeatherDisplay:10.37,2013-03-04 07:55:00,
2013-03-04 03:01:00,23.3,15.6,22.74,WNW,303,0.0,0.0,72,0.00,CLR,,0.00,WeatherDisplay:10.37,2013-03-04 08:01:00,
2013-03-04 03:06:00,23.4,15.7,22.74,West,270,0.0,0.0,72,0.00,CLR,,0.00,WeatherDisplay:10.37,2013-03-04 08:06:00,
2013-03-04 03:11:00,23.3,15.6,22.74,West,277,0.0,0.0,72,0.00,CLR,,0.00,WeatherDisplay:10.37,2013-03-04 08:11:00,
2013-03-04 03:16:00,23.3,15.6,22.74,WNW,300,0.0,0.0,72,0.00,CLR,,0.00,WeatherDisplay:10.37,2013-03-04 08:16:00,
2013-03-04 03:21:00,23.3,15.9,22.74,WNW,283,3.5,3.5,73,0.00,CLR,,0.00,WeatherDisplay:10.37,2013-03-04 08:21:00,
2013-03-04 03:26:00,23.4,15.7,22.74,WNW,285,0.0,0.0,72,0.00,CLR,,0.00,WeatherDisplay:10.37,2013-03-04 08:26:00,
2013-03-04 03:31:00,23.4,16.6,22.74,WNW,285,0.0,0.0,75,0.00,CLR,,0.00,WeatherDisplay:10.37,2013-03-04 08:31:00,
2013-03-04 03:36:00,23.5,16.4,22.74,WNW,285,0.0,0.0,74,0.00,CLR,,0.00,WeatherDisplay:10.37,2013-03-04 08:36:00,
2013-03-04 03:41:00,23.6,16.8,22.74,WNW,284,0.0,0.0,75,0.00,CLR,,0.00,WeatherDisplay:10.37,2013-03-04 08:41:00,
2013-03-04 03:46:00,23.6,16.5,22.74,WNW,284,0.0,0.0,74,0.00,CLR,,0.00,WeatherDisplay:10.37,2013-03-04 08:46:00,
2013-03-04 03:51:00,23.6,16.8,22.74,WNW,284,0.0,0.0,75,0.00,CLR,,0.00,WeatherDisplay:10.37,2013-03-04 08:51:00,
2013-03-04 03:56:00,23.6,16.8,22.74,WNW,285,0.0,0.0,75,0.00,CLR,,0.00,WeatherDisplay:10.37,2013-03-04 08:56:00,
2013-03-04 04:01:00,23.5,16.7,22.74,WNW,284,0.0,0.0,75,0.00,CLR,,0.00,WeatherDisplay:10.37,2013-03-04 09:01:00,
2013-03-04 04:06:00,23.5,16.7,22.74,WNW,284,0.0,0.0,75,0.00,CLR,,0.00,WeatherDisplay:10.37,2013-03-04 09:06:00,
2013-03-04 04:11:00,23.5,17.3,22.74,WNW,285,0.0,0.0,77,0.00,CLR,,0.00,WeatherDisplay:10.37,2013-03-04 09:11:00,
2013-03-04 04:16:00,23.4,16.9,22.74,WNW,284,0.0,0.0,76,0.00,CLR,,0.00,WeatherDisplay:10.37,2013-03-04 09:16:00,
2013-03-04 04:21:00,23.2,16.4,22.74,WNW,284,0.0,0.0,75,0.00,CLR,,0.00,WeatherDisplay:10.37,2013-03-04 09:21:00,
2013-03-04 04:26:00,22.9,16.2,22.74,WNW,284,0.0,0.0,75,0.00,CLR,,0.00,WeatherDisplay:10.37,2013-03-04 09:26:00,
2013-03-04 04:31:00,22.7,16.3,22.74,WNW,284,0.0,0.0,76,0.00,CLR,,0.00,WeatherDisplay:10.37,2013-03-04 09:31:00,
2013-03-04 04:36:00,22.6,16.5,22.74,WNW,285,0.0,0.0,77,0.00,CLR,,0.00,WeatherDisplay:10.37,2013-03-04 09:36:00,
2013-03-04 04:41:00,22.4,16.6,22.74,WNW,284,0.0,0.0,78,0.00,CLR,,0.00,WeatherDisplay:10.37,2013-03-04 09:41:00,
2013-03-04 04:46:00,22.2,16.4,22.74,WNW,285,0.0,0.0,78,0.00,CLR,,0.00,WeatherDisplay:10.37,2013-03-04 09:46:00,
2013-03-04 04:51:00,22.1,17.2,22.74,WNW,285,0.0,0.0,81,0.00,CLR,,0.00,WeatherDisplay:10.37,2013-03-04 09:51:00,
2013-03-04 04:56:00,22.1,16.9,22.74,WNW,284,0.0,0.0,80,0.00,CLR,,0.00,WeatherDisplay:10.37,2013-03-04 09:56:00,
2013-03-04 05:01:00,21.9,16.4,22.74,WNW,285,0.0,0.0,79,0.00,CLR,,0.00,WeatherDisplay:10.37,2013-03-04 10:01:00,
2013-03-04 05:06:00,21.8,16.9,22.74,WNW,284,0.0,0.0,81,0.00,CLR,,0.00,WeatherDisplay:10.37,2013-03-04 10:06:00,
2013-03-04 05:11:00,21.9,17.2,22.74,WNW,284,0.0,0.0,82,0.00,CLR,,0.00,WeatherDisplay:10.37,2013-03-04 10:11:00,
2013-03-04 05:16:00,21.9,17.5,22.74,WNW,284,0.0,0.0,83,0.00,CLR,,0.00,WeatherDisplay:10.37,2013-03-04 10:16:00,
2013-03-04 05:21:00,21.9,17.2,22.74,WNW,285,0.0,0.0,82,0.00,CLR,,0.00,WeatherDisplay:10.37,2013-03-04 10:21:00,
2013-03-04 05:26:00,21.9,17.5,22.74,WNW,284,0.0,0.0,83,0.00,CLR,,0.00,WeatherDisplay:10.37,2013-03-04 10:26:00,
2013-03-04 05:31:00,21.9,17.5,22.74,WNW,285,0.0,0.0,83,0.00,CLR,,0.00,WeatherDisplay:10.37,2013-03-04 10:31:00,
2013-03-04 05:36:00,21.9,17.5,22.74,WNW,284,0.0,0.0,83,0.00,CLR,,0.00,WeatherDisplay:10.37,2013-03-04 10:36:00,
2013-03-04 05:41:00,21.9,17.2,22.74,WNW,284,0.0,0.0,82,0.00,CLR,,0.00,WeatherDisplay:10.37,2013-03-04 10:41:00,
2013-03-04 05:46:00,21.7,16.8,22.74,WNW,284,0.0,0.0,81,0.00,CLR,,0.00,WeatherDisplay:10.37,2013-03-04 10:46:00,
2013-03-04 05:51:00,21.6,17.0,22.74,WNW,284,0.0,0.0,82,0.00,CLR,,0.00,WeatherDisplay:10.37,2013-03-04 10:51:00,
2013-03-04 05:56:00,21.5,16.6,22.74,WNW,284,0.0,0.0,81,0.00,CLR,,0.00,WeatherDisplay:10.37,2013-03-04 10:56:00,
2013-03-04 06:01:00,21.4,16.8,22.74,WNW,284,0.0,0.0,82,0.00,CLR,,0.00,WeatherDisplay:10.37,2013-03-04 11:01:00,
2013-03-04 06:06:00,21.5,17.4,22.74,WNW,284,0.0,0.0,84,0.00,CLR,,0.00,WeatherDisplay:10.37,2013-03-04 11:06:00,
2013-03-04 06:11:00,21.6,17.5,22.74,WNW,284,0.0,0.0,84,0.00,CLR,,0.00,WeatherDisplay:10.37,2013-03-04 11:11:00,
2013-03-04 06:16:00,21.6,17.2,22.74,WNW,284,0.0,0.0,83,0.00,CLR,,0.00,WeatherDisplay:10.37,2013-03-04 11:16:00,
2013-03-04 06:21:00,21.7,17.3,22.74,WNW,284,0.0,0.0,83,0.00,CLR,,0.00,WeatherDisplay:10.37,2013-03-04 11:21:00,
2013-03-04 06:26:00,21.8,17.2,22.74,WNW,284,0.0,0.0,82,0.00,CLR,,0.00,WeatherDisplay:10.37,2013-03-04 11:26:00,
2013-03-04 06:31:00,21.8,17.2,22.74,WNW,284,0.0,0.6,82,0.00,CLR,,0.00,WeatherDisplay:10.37,2013-03-04 11:31:00,
2013-03-04 06:36:00,21.8,17.2,22.74,WNW,284,0.0,0.0,82,0.00,CLR,,0.00,WeatherDisplay:10.37,2013-03-04 11:36:00,
2013-03-04 06:41:00,21.8,16.9,22.74,WNW,284,0.0,0.0,81,0.00,CLR,,0.00,WeatherDisplay:10.37,2013-03-04 11:41:00,
2013-03-04 06:46:00,21.9,17.0,22.74,WNW,284,0.0,0.0,81,0.00,CLR,,0.00,WeatherDisplay:10.37,2013-03-04 11:46:00,
2013-03-04 06:51:00,22.0,17.1,22.74,WNW,284,0.0,0.0,81,0.00,CLR,,0.00,WeatherDisplay:10.37,2013-03-04 11:51:00,
2013-03-04 06:56:00,22.0,17.1,22.74,WSW,246,3.5,3.5,81,0.00,CLR,,0.00,WeatherDisplay:10.37,2013-03-04 11:56:00,
2013-03-04 07:01:00,22.1,17.2,22.74,WSW,246,0.0,0.0,81,0.00,CLR,,0.00,WeatherDisplay:10.37,2013-03-04 12:01:00,
2013-03-04 07:06:00,22.2,17.0,22.74,WSW,246,2.0,2.0,80,0.00,CLR,,0.00,WeatherDisplay:10.37,2013-03-04 12:06:00,
2013-03-04 07:11:00,22.3,17.1,22.74,WSW,246,1.0,1.5,80,0.00,CLR,,0.00,WeatherDisplay:10.37,2013-03-04 12:11:00,
2013-03-04 07:16:00,22.4,16.9,22.74,WSW,246,2.3,2.3,79,0.00,CLR,,0.00,WeatherDisplay:10.37,2013-03-04 12:16:00,
2013-03-04 07:21:00,22.6,17.1,22.74,WSW,246,1.1,0.0,79,0.00,CLR,,0.00,WeatherDisplay:10.37,2013-03-04 12:21:00,
2013-03-04 07:26:00,22.7,17.2,22.74,WSW,246,0.0,0.0,79,0.00,CLR,,0.00,WeatherDisplay:10.37,2013-03-04 12:26:00,
2013-03-04 07:31:00,22.9,17.4,22.74,WSW,246,0.0,0.0,79,0.00,CLR,,0.00,WeatherDisplay:10.37,2013-03-04 12:31:00,
2013-03-04 07:36:00,23.1,17.6,22.74,WSW,246,0.0,0.0,79,0.00,CLR,,0.00,WeatherDisplay:10.37,2013-03-04 12:36:00,
2013-03-04 07:41:00,23.3,17.5,22.74,WSW,246,0.0,0.0,78,0.00,CLR,,0.00,WeatherDisplay:10.37,2013-03-04 12:41:00,
2013-03-04 07:46:00,23.5,17.6,22.74,WSW,246,0.0,0.6,78,0.00,CLR,,0.00,WeatherDisplay:10.37,2013-03-04 12:46:00,
2013-03-04 07:51:00,23.8,17.6,22.74,West,273,3.5,3.5,77,0.00,CLR,,0.00,WeatherDisplay:10.37,2013-03-04 12:51:00,
2013-03-04 07:56:00,24.0,17.8,22.74,West,267,0.0,0.0,77,0.00,CLR,,0.00,WeatherDisplay:10.37,2013-03-04 12:56:00,
2013-03-04 08:01:00,24.3,17.8,22.74,West,267,4.0,4.0,76,0.00,CLR,,0.00,WeatherDisplay:10.37,2013-03-04 13:01:00,
2013-03-04 08:07:00,24.6,18.1,22.74,West,267,4.0,4.0,76,0.00,CLR,,0.00,WeatherDisplay:10.37,2013-03-04 13:07:00,
2013-03-04 08:12:00,24.9,18.1,22.74,West,267,3.5,3.5,75,0.00,CLR,,0.00,WeatherDisplay:10.37,2013-03-04 13:12:00,
2013-03-04 08:17:00,25.2,18.1,22.74,West,267,3.0,3.0,74,0.00,CLR,,0.00,WeatherDisplay:10.37,2013-03-04 13:17:00,
2013-03-04 08:22:00,25.7,18.6,22.74,West,267,3.5,3.5,74,0.00,CLR,,0.00,WeatherDisplay:10.37,2013-03-04 13:22:00,
2013-03-04 08:27:00,26.1,18.6,22.74,WSW,246,4.0,4.0,73,0.00,CLR,,0.00,WeatherDisplay:10.37,2013-03-04 13:27:00,
2013-03-04 08:32:00,26.6,18.8,22.74,WSW,250,5.8,5.8,72,0.00,CLR,,0.00,WeatherDisplay:10.37,2013-03-04 13:32:00,
2013-03-04 08:37:00,26.9,18.4,22.74,West,273,6.0,6.0,70,0.00,CLR,,0.00,WeatherDisplay:10.37,2013-03-04 13:37:00,
2013-03-04 08:42:00,27.1,18.9,22.74,West,264,6.9,6.9,71,0.00,CLR,,0.00,WeatherDisplay:10.37,2013-03-04 13:42:00,
2013-03-04 08:47:00,27.4,19.2,22.74,WSW,252,4.0,4.0,71,0.00,CLR,,0.00,WeatherDisplay:10.37,2013-03-04 13:47:00,
2013-03-04 08:52:00,27.9,19.0,22.74,WSW,257,5.8,5.8,69,0.00,CLR,,0.00,WeatherDisplay:10.37,2013-03-04 13:52:00,
2013-03-04 08:57:00,28.3,18.7,22.74,WSW,256,6.9,6.9,67,0.00,CLR,,0.00,WeatherDisplay:10.37,2013-03-04 13:57:00,
2013-03-04 09:02:00,28.5,18.6,22.74,West,267,10.4,10.4,66,0.00,CLR,,0.00,WeatherDisplay:10.37,2013-03-04 14:02:00,
2013-03-04 09:07:00,28.7,18.8,22.74,West,267,5.8,5.8,66,0.00,CLR,,0.00,WeatherDisplay:10.37,2013-03-04 14:07:00,
2013-03-04 09:12:00,29.0,19.4,22.74,West,275,3.5,3.5,67,0.00,CLR,,0.00,WeatherDisplay:10.37,2013-03-04 14:12:00,
2013-03-04 09:17:00,30.1,19.0,22.74,West,279,4.0,4.0,63,0.00,CLR,,0.00,WeatherDisplay:10.37,2013-03-04 14:17:00,
2013-03-04 09:22:00,31.2,20.1,22.74,West,276,1.1,0.0,63,0.00,CLR,,0.00,WeatherDisplay:10.37,2013-03-04 14:22:00,
2013-03-04 09:27:00,32.4,19.7,22.74,WNW,283,5.8,5.8,59,0.00,CLR,,0.00,WeatherDisplay:10.37,2013-03-04 14:27:00,
2013-03-04 09:32:00,32.8,19.6,22.74,West,275,10.4,10.4,58,0.00,CLR,,0.00,WeatherDisplay:10.37,2013-03-04 14:32:00,
2013-03-04 09:37:00,32.6,19.0,22.74,West,271,11.5,11.5,57,0.00,CLR,,0.00,WeatherDisplay:10.37,2013-03-04 14:37:00,
2013-03-04 09:42:00,32.2,18.7,22.74,SW,232,11.5,11.5,57,0.00,CLR,,0.00,WeatherDisplay:10.37,2013-03-04 14:42:00,
2013-03-04 09:47:00,32.7,19.5,22.74,West,259,4.6,4.6,58,0.00,CLR,,0.00,WeatherDisplay:10.37,2013-03-04 14:47:00,
2013-03-04 09:52:00,33.3,19.3,22.74,SE,132,0.0,0.0,56,0.00,CLR,,0.00,WeatherDisplay:10.37,2013-03-04 14:52:00,
2013-03-04 09:57:00,33.7,20.5,22.74,WNW,284,13.0,13.0,58,0.00,CLR,,0.00,WeatherDisplay:10.37,2013-03-04 14:57:00,
2013-03-04 10:02:00,34.4,20.7,22.74,WSW,253,8.1,8.1,57,0.00,CLR,,0.00,WeatherDisplay:10.37,2013-03-04 15:02:00,
2013-03-04 10:07:00,35.3,20.7,22.74,WSW,249,6.9,6.9,55,0.00,CLR,,0.00,WeatherDisplay:10.37,2013-03-04 15:07:00,
2013-03-04 10:12:00,35.4,20.8,22.74,West,278,6.9,6.9,55,0.00,CLR,,0.00,WeatherDisplay:10.37,2013-03-04 15:12:00,
2013-03-04 10:17:00,35.0,20.4,22.74,NNW,337,0.0,0.0,55,0.00,CLR,,0.00,WeatherDisplay:10.37,2013-03-04 15:17:00,
2013-03-04 10:22:00,34.4,19.9,22.74,WNW,287,11.5,11.5,55,0.00,CLR,,0.00,WeatherDisplay:10.37,2013-03-04 15:22:00,
2013-03-04 10:27:00,35.4,21.2,22.74,SW,219,1.1,0.0,56,0.00,CLR,,0.00,WeatherDisplay:10.37,2013-03-04 15:27:00,
2013-03-04 10:32:00,36.4,21.8,22.74,SW,232,6.9,6.9,55,0.00,CLR,,0.00,WeatherDisplay:10.37,2013-03-04 15:32:00,
2013-03-04 10:37:00,36.7,20.7,22.74,SW,216,11.5,11.5,52,0.00,CLR,,0.00,WeatherDisplay:10.37,2013-03-04 15:37:00,
2013-03-04 10:42:00,36.9,20.9,22.74,West,275,10.4,10.4,52,0.00,CLR,,0.00,WeatherDisplay:10.37,2013-03-04 15:42:00,
2013-03-04 10:47:00,37.2,21.2,22.74,WSW,257,11.5,11.5,52,0.00,CLR,,0.00,WeatherDisplay:10.37,2013-03-04 15:47:00,
2013-03-04 10:52:00,37.5,21.5,22.74,WSW,244,3.5,3.5,52,0.00,CLR,,0.00,WeatherDisplay:10.37,2013-03-04 15:52:00,
2013-03-04 10:57:00,37.8,21.3,22.74,SW,225,6.9,6.9,51,0.00,CLR,,0.00,WeatherDisplay:10.37,2013-03-04 15:57:00,
2013-03-04 11:02:00,38.4,22.7,22.74,West,271,4.6,4.6,53,0.00,CLR,,0.00,WeatherDisplay:10.37,2013-03-04 16:02:00,
2013-03-04 11:07:00,39.2,22.6,22.74,WNW,285,8.0,8.0,51,0.00,CLR,,0.00,WeatherDisplay:10.37,2013-03-04 16:07:00,
2013-03-04 11:12:00,39.3,22.7,22.74,SSW,205,8.1,8.1,51,0.00,CLR,,0.00,WeatherDisplay:10.37,2013-03-04 16:12:00,
2013-03-04 11:17:00,38.6,21.1,22.74,NW,318,8.0,8.0,49,0.00,CLR,,0.00,WeatherDisplay:10.37,2013-03-04 16:17:00,
2013-03-04 11:22:00,37.9,20.9,22.74,West,279,8.1,8.1,50,0.00,CLR,,0.00,WeatherDisplay:10.37,2013-03-04 16:22:00,
2013-03-04 11:27:00,37.9,21.4,22.74,West,273,6.9,6.9,51,0.00,CLR,,0.00,WeatherDisplay:10.37,2013-03-04 16:27:00,
2013-03-04 11:32:00,38.6,22.0,22.74,WSW,253,10.4,10.4,51,0.00,CLR,,0.00,WeatherDisplay:10.37,2013-03-04 16:32:00,
2013-03-04 11:37:00,38.8,22.2,22.74,SW,227,8.0,8.0,51,0.00,CLR,,0.00,WeatherDisplay:10.37,2013-03-04 16:37:00,
2013-03-04 11:42:00,38.9,21.8,22.74,West,260,9.2,9.2,50,0.00,CLR,,0.00,WeatherDisplay:10.37,2013-03-04 16:42:00,
2013-03-04 11:47:00,38.4,20.4,22.74,WNW,299,5.8,0.0,48,0.00,CLR,,0.00,WeatherDisplay:10.37,2013-03-04 16:47:00,
2013-03-04 11:52:00,38.7,22.1,22.74,West,275,11.5,11.5,51,0.00,CLR,,0.00,WeatherDisplay:10.37,2013-03-04 16:52:00,
2013-03-04 11:57:00,39.1,22.0,22.74,West,270,8.1,8.1,50,0.00,CLR,,0.00,WeatherDisplay:10.37,2013-03-04 16:57:00,
2013-03-04 12:02:00,38.8,22.2,22.74,WNW,287,7.0,7.0,51,0.00,CLR,,0.00,WeatherDisplay:10.37,2013-03-04 17:02:00,
2013-03-04 12:07:00,39.2,21.6,22.74,West,278,8.1,8.1,49,0.00,CLR,,0.00,WeatherDisplay:10.37,2013-03-04 17:07:00,
2013-03-04 12:12:00,39.5,21.9,22.74,WSW,250,13.8,13.8,49,0.00,CLR,,0.00,WeatherDisplay:10.37,2013-03-04 17:12:00,
2013-03-04 12:17:00,40.0,22.8,22.74,SW,226,5.0,5.1,50,0.00,CLR,,0.00,WeatherDisplay:10.37,2013-03-04 17:17:00,
2013-03-04 12:22:00,40.2,22.5,22.74,West,263,11.5,11.5,49,0.00,CLR,,0.00,WeatherDisplay:10.37,2013-03-04 17:22:00,
2013-03-04 12:27:00,40.6,22.9,22.74,WSW,256,9.2,9.2,49,0.00,CLR,,0.00,WeatherDisplay:10.37,2013-03-04 17:27:00,
2013-03-04 12:32:00,40.3,22.1,22.74,West,259,5.8,5.8,48,0.00,CLR,,0.00,WeatherDisplay:10.37,2013-03-04 17:32:00,
2013-03-04 12:37:00,39.3,21.7,22.74,SW,233,8.1,8.1,49,0.00,CLR,,0.00,WeatherDisplay:10.37,2013-03-04 17:37:00,
2013-03-04 12:42:00,39.1,21.5,22.74,NE,34,3.5,3.5,49,0.00,CLR,,0.00,WeatherDisplay:10.37,2013-03-04 17:42:00,
2013-03-04 12:47:00,39.3,22.2,22.74,West,281,8.1,8.1,50,0.00,CLR,,0.00,WeatherDisplay:10.37,2013-03-04 17:47:00,
2013-03-04 12:52:00,40.5,22.8,22.74,SW,225,6.9,6.9,49,0.00,CLR,,0.00,WeatherDisplay:10.37,2013-03-04 17:52:00,
2013-03-04 12:57:00,41.3,23.1,22.74,WSW,240,10.0,10.0,48,0.00,CLR,,0.00,WeatherDisplay:10.37,2013-03-04 17:57:00,
2013-03-04 13:02:00,41.4,23.2,22.74,WSW,238,12.7,12.7,48,0.00,CLR,,0.00,WeatherDisplay:10.37,2013-03-04 18:02:00,
2013-03-04 13:07:00,41.3,23.6,22.74,West,276,12.0,12.0,49,0.00,CLR,,0.00,WeatherDisplay:10.37,2013-03-04 18:07:00,
2013-03-04 13:13:00,41.1,22.9,22.74,West,278,8.1,8.1,48,0.00,CLR,,0.00,WeatherDisplay:10.37,2013-03-04 18:13:00,
2013-03-04 13:18:00,41.2,23.5,22.74,West,277,11.5,11.5,49,0.00,CLR,,0.00,WeatherDisplay:10.37,2013-03-04 18:18:00,
2013-03-04 13:23:00,41.6,23.8,22.74,WSW,241,9.0,9.0,49,0.00,CLR,,0.00,WeatherDisplay:10.37,2013-03-04 18:23:00,
2013-03-04 13:28:00,41.7,23.4,22.74,SSW,211,12.7,12.7,48,0.00,CLR,,0.00,WeatherDisplay:10.37,2013-03-04 18:28:00,
2013-03-04 13:29:00,41.7,24.4,22.74,WSW,252,9.2,9.2,50,0.00,CLR,,0.00,WeatherDisplay:10.37,2013-03-04 18:29:00,
2013-03-04 13:34:00,42.0,23.2,22.74,SW,235,9.2,9.2,47,0.00,CLR,,0.00,WeatherDisplay:10.37,2013-03-04 18:34:00,
2013-03-04 13:39:00,42.0,23.2,22.74,West,261,11.5,11.5,47,0.00,CLR,,0.00,WeatherDisplay:10.37,2013-03-04 18:39:00,
2013-03-04 13:44:00,42.4,23.1,22.74,WNW,284,4.6,7.0,46,0.00,CLR,,0.00,WeatherDisplay:10.37,2013-03-04 18:44:00,
2013-03-04 13:49:00,42.6,23.2,22.74,WNW,293,10.4,10.4,46,0.00,CLR,,0.00,WeatherDisplay:10.37,2013-03-04 18:49:00,
2013-03-04 13:54:00,42.7,23.3,22.74,SW,219,5.8,5.8,46,0.00,CLR,,0.00,WeatherDisplay:10.37,2013-03-04 18:54:00,
2013-03-04 13:59:00,43.0,23.6,22.74,West,268,9.2,9.2,46,0.00,CLR,,0.00,WeatherDisplay:10.37,2013-03-04 18:59:00,
2013-03-04 14:05:00,42.9,23.5,22.74,West,275,4.6,4.8,46,0.00,CLR,,0.00,WeatherDisplay:10.37,2013-03-04 19:05:00,
2013-03-04 14:10:00,42.7,23.3,22.74,SW,221,11.5,11.5,46,0.00,CLR,,0.00,WeatherDisplay:10.37,2013-03-04 19:10:00,
2013-03-04 14:15:00,43.1,23.2,22.74,West,262,5.8,5.8,45,0.00,CLR,,0.00,WeatherDisplay:10.37,2013-03-04 19:15:00,
2013-03-04 14:20:00,43.3,23.4,22.74,West,277,6.0,6.0,45,0.00,CLR,,0.00,WeatherDisplay:10.37,2013-03-04 19:20:00,
2013-03-04 14:25:00,43.3,23.4,22.74,WNW,282,13.8,13.8,45,0.00,CLR,,0.00,WeatherDisplay:10.37,2013-03-04 19:25:00,
2013-03-04 14:30:00,42.5,23.2,22.74,SW,219,6.9,6.9,46,0.00,CLR,,0.00,WeatherDisplay:10.37,2013-03-04 19:30:00,
2013-03-04 14:35:00,42.3,23.5,22.74,SW,219,11.5,11.5,47,0.00,CLR,,0.00,WeatherDisplay:10.37,2013-03-04 19:35:00,
2013-03-04 14:40:00,42.4,22.5,22.74,West,264,6.9,6.9,45,0.00,CLR,,0.00,WeatherDisplay:10.37,2013-03-04 19:40:00,
2013-03-04 14:45:00,42.7,22.8,22.74,West,271,10.4,10.4,45,0.00,CLR,,0.00,WeatherDisplay:10.37,2013-03-04 19:45:00,
2013-03-04 14:50:00,42.6,22.7,22.74,NW,313,3.5,3.5,45,0.00,CLR,,0.00,WeatherDisplay:10.37,2013-03-04 19:50:00,
2013-03-04 14:55:00,42.5,23.2,22.74,West,270,8.1,8.1,46,0.00,CLR,,0.00,WeatherDisplay:10.37,2013-03-04 19:55:00,
2013-03-04 15:00:00,42.5,23.2,22.74,West,280,3.5,3.5,46,0.00,CLR,,0.00,WeatherDisplay:10.37,2013-03-04 20:00:00,
2013-03-04 15:05:00,42.8,22.9,22.74,SW,234,2.3,0.0,45,0.00,CLR,,0.00,WeatherDisplay:10.37,2013-03-04 20:05:00,
2013-03-04 15:10:00,43.1,23.2,22.74,WNW,293,15.0,15.0,45,0.00,CLR,,0.00,WeatherDisplay:10.37,2013-03-04 20:10:00,
2013-03-04 15:15:00,43.2,22.7,22.74,WNW,295,8.1,8.1,44,0.00,CLR,,0.00,WeatherDisplay:10.37,2013-03-04 20:15:00,
2013-03-04 15:20:00,43.2,22.7,22.74,West,279,10.4,10.4,44,0.00,CLR,,0.00,WeatherDisplay:10.37,2013-03-04 20:20:00,
2013-03-04 15:25:00,43.2,22.7,22.74,West,265,3.5,3.5,44,0.00,CLR,,0.00,WeatherDisplay:10.37,2013-03-04 20:25:00,
2013-03-04 15:30:00,43.4,23.4,22.74,West,275,11.5,11.5,45,0.00,CLR,,0.00,WeatherDisplay:10.37,2013-03-04 20:30:00,
2013-03-04 15:35:00,43.6,23.6,22.74,SW,234,9.2,9.2,45,0.00,CLR,,0.00,WeatherDisplay:10.37,2013-03-04 20:35:00,
2013-03-04 15:40:00,43.6,23.6,22.74,NW,304,3.5,3.5,45,0.00,CLR,,0.00,WeatherDisplay:10.37,2013-03-04 20:40:00,
2013-03-04 15:45:00,43.9,23.4,22.74,SW,236,8.1,8.1,44,0.00,CLR,,0.00,WeatherDisplay:10.37,2013-03-04 20:45:00,
2013-03-04 15:59:00,42.9,23.0,22.74,SW,235,10.0,10.0,45,0.00,CLR,,0.00,WeatherDisplay:10.37,2013-03-04 20:59:00,
2013-03-04 16:04:00,43.3,23.4,22.74,SW,236,3.5,3.5,45,0.00,CLR,,0.00,WeatherDisplay:10.37,2013-03-04 21:04:00,
2013-03-04 16:09:00,43.6,23.1,22.74,SW,225,6.9,6.9,44,0.00,CLR,,0.00,WeatherDisplay:10.37,2013-03-04 21:09:00,
2013-03-04 16:14:00,43.9,23.9,22.74,WSW,241,10.4,10.4,45,0.00,CLR,,0.00,WeatherDisplay:10.37,2013-03-04 21:14:00,
2013-03-04 16:19:00,44.1,23.6,22.74,WSW,256,5.8,5.8,44,0.00,CLR,,0.00,WeatherDisplay:10.37,2013-03-04 21:19:00,
2013-03-04 16:24:00,44.2,24.2,22.74,West,265,11.0,11.0,45,0.00,CLR,,0.00,WeatherDisplay:10.37,2013-03-04 21:24:00,
2013-03-04 16:29:00,44.2,23.6,22.74,SW,230,9.2,9.2,44,0.00,CLR,,0.00,WeatherDisplay:10.37,2013-03-04 21:29:00,
2013-03-04 16:34:00,43.9,23.4,22.74,SW,232,9.2,9.2,44,0.00,CLR,,0.00,WeatherDisplay:10.37,2013-03-04 21:34:00,
2013-03-04 16:39:00,43.8,23.3,22.74,West,277,6.9,6.9,44,0.00,CLR,,0.00,WeatherDisplay:10.37,2013-03-04 21:39:00,
2013-03-04 16:44:00,43.5,23.0,22.74,West,272,4.6,4.6,44,0.00,CLR,,0.00,WeatherDisplay:10.37,2013-03-04 21:44:00,
2013-03-04 16:49:00,43.4,22.9,22.74,West,278,9.2,9.2,44,0.00,CLR,,0.00,WeatherDisplay:10.37,2013-03-04 21:49:00,
2013-03-04 16:54:00,43.3,22.3,22.74,West,279,6.9,6.9,43,0.00,CLR,,0.00,WeatherDisplay:10.37,2013-03-04 21:54:00,
2013-03-04 16:59:00,42.8,21.8,22.74,WSW,250,6.9,6.9,43,0.00,CLR,,0.00,WeatherDisplay:10.37,2013-03-04 21:59:00,
2013-03-04 17:04:00,42.4,22.0,22.74,WSW,250,4.6,4.6,44,0.00,CLR,,0.00,WeatherDisplay:10.37,2013-03-04 22:04:00,
2013-03-04 17:09:00,42.1,21.7,22.74,WSW,250,10.4,10.4,44,0.00,CLR,,0.00,WeatherDisplay:10.37,2013-03-04 22:09:00,
2013-03-04 17:14:00,41.8,22.0,22.74,SW,227,11.5,11.5,45,0.00,CLR,,0.00,WeatherDisplay:10.37,2013-03-04 22:14:00,
2013-03-04 17:19:00,41.6,21.8,22.74,West,270,6.9,6.9,45,0.00,CLR,,0.00,WeatherDisplay:10.37,2013-03-04 22:19:00,
2013-03-04 17:24:00,41.3,21.0,22.74,WSW,253,10.4,10.4,44,0.00,CLR,,0.00,WeatherDisplay:10.37,2013-03-04 22:24:00,
2013-03-04 17:29:00,41.0,21.3,22.74,WNW,284,4.6,4.6,45,0.00,CLR,,0.00,WeatherDisplay:10.37,2013-03-04 22:29:00,
2013-03-04 17:34:00,40.8,21.6,22.74,West,269,3.5,3.5,46,0.00,CLR,,0.00,WeatherDisplay:10.37,2013-03-04 22:34:00,
2013-03-04 17:39:00,40.7,21.5,22.74,West,268,3.5,3.5,46,0.00,CLR,,0.00,WeatherDisplay:10.37,2013-03-04 22:39:00,
2013-03-04 17:44:00,40.6,20.9,22.74,West,268,4.6,4.6,45,0.00,CLR,,0.00,WeatherDisplay:10.37,2013-03-04 22:44:00,
2013-03-04 17:49:00,40.4,21.2,22.74,West,265,6.0,6.0,46,0.00,CLR,,0.00,WeatherDisplay:10.37,2013-03-04 22:49:00,
2013-03-04 17:54:00,40.2,21.0,22.74,West,267,3.5,3.5,46,0.00,CLR,,0.00,WeatherDisplay:10.37,2013-03-04 22:54:00,
2013-03-04 17:59:00,40.1,21.5,22.74,West,267,3.5,3.5,47,0.00,CLR,,0.00,WeatherDisplay:10.37,2013-03-04 22:59:00,
2013-03-04 18:04:00,39.9,21.8,22.74,West,267,4.6,4.6,48,0.00,CLR,,0.00,WeatherDisplay:10.37,2013-03-04 23:04:00,
2013-03-04 18:09:00,39.5,20.9,22.74,West,274,4.6,4.6,47,0.00,CLR,,0.00,WeatherDisplay:10.37,2013-03-04 23:09:00,
2013-03-04 18:14:00,39.2,21.1,22.74,West,274,1.1,0.0,48,0.00,CLR,,0.00,WeatherDisplay:10.37,2013-03-04 23:14:00,
2013-03-04 18:19:00,38.8,21.3,22.74,West,273,3.5,3.5,49,0.00,CLR,,0.00,WeatherDisplay:10.37,2013-03-04 23:19:00,
2013-03-04 18:24:00,38.5,21.5,22.74,West,274,0.0,0.0,50,0.00,CLR,,0.00,WeatherDisplay:10.37,2013-03-04 23:24:00,
2013-03-04 18:29:00,38.3,23.5,22.74,West,274,0.0,0.0,55,0.00,CLR,,0.00,WeatherDisplay:10.37,2013-03-04 23:29:00,
2013-03-04 18:35:00,38.0,22.8,22.74,West,273,0.0,0.0,54,0.00,CLR,,0.00,WeatherDisplay:10.37,2013-03-04 23:35:00,
2013-03-04 18:40:00,37.7,23.0,22.74,West,274,0.0,0.0,55,0.00,CLR,,0.00,WeatherDisplay:10.37,2013-03-04 23:40:00,
2013-03-04 18:45:00,37.4,23.1,22.74,West,274,0.0,0.0,56,0.00,CLR,,0.00,WeatherDisplay:10.37,2013-03-04 23:45:00,
2013-03-04 18:50:00,37.0,23.2,22.74,West,273,0.0,0.0,57,0.00,CLR,,0.00,WeatherDisplay:10.37,2013-03-04 23:50:00,
2013-03-04 18:55:00,36.7,25.7,22.74,West,274,0.0,0.0,64,0.00,CLR,,0.00,WeatherDisplay:10.37,2013-03-04 23:55:00,
2013-03-04 19:00:00,36.5,24.7,22.74,West,274,0.0,0.0,62,0.00,CLR,,0.00,WeatherDisplay:10.37,2013-03-05 00:00:00,
2013-03-04 19:05:00,36.4,26.5,22.74,West,274,0.0,0.0,67,0.00,CLR,,0.00,WeatherDisplay:10.37,2013-03-05 00:05:00,
2013-03-04 19:10:00,36.0,24.6,22.74,West,274,0.0,0.0,63,0.00,CLR,,0.00,WeatherDisplay:10.37,2013-03-05 00:10:00,
2013-03-04 19:15:00,35.6,24.2,22.74,West,273,0.0,0.0,63,0.00,CLR,,0.00,WeatherDisplay:10.37,2013-03-05 00:15:00,
2013-03-04 19:20:00,35.2,25.0,22.74,West,274,0.0,0.0,66,0.00,CLR,,0.00,WeatherDisplay:10.37,2013-03-05 00:20:00,
2013-03-04 19:25:00,34.1,22.4,22.74,West,274,0.0,0.0,62,0.00,CLR,,0.00,WeatherDisplay:10.37,2013-03-05 00:25:00,
2013-03-04 19:30:00,33.2,21.6,22.74,West,274,0.0,0.0,62,0.00,CLR,,0.00,WeatherDisplay:10.37,2013-03-05 00:30:00,
2013-03-04 19:35:00,32.9,23.5,22.74,West,273,0.0,0.0,68,0.00,CLR,,0.00,WeatherDisplay:10.37,2013-03-05 00:35:00,
2013-03-04 19:40:00,32.6,22.8,22.74,West,274,0.0,0.0,67,0.00,CLR,,0.00,WeatherDisplay:10.37,2013-03-05 00:40:00,
2013-03-04 19:45:00,32.3,22.6,22.74,West,274,0.0,0.0,67,0.00,CLR,,0.00,WeatherDisplay:10.37,2013-03-05 00:45:00,
2013-03-04 19:50:00,31.8,22.1,22.74,West,274,0.0,0.0,67,0.00,CLR,,0.00,WeatherDisplay:10.37,2013-03-05 00:50:00,
2013-03-04 19:55:00,31.5,22.1,22.74,West,274,0.0,0.0,68,0.00,CLR,,0.00,WeatherDisplay:10.37,2013-03-05 00:55:00,
2013-03-04 20:00:00,31.2,21.9,22.74,West,274,0.0,0.0,68,0.00,CLR,,0.00,WeatherDisplay:10.37,2013-03-05 01:00:00,
2013-03-04 20:05:00,31.2,23.5,22.74,West,273,0.0,0.0,73,0.00,CLR,,0.00,WeatherDisplay:10.37,2013-03-05 01:05:00,
2013-03-04 20:10:00,31.0,22.4,22.74,West,274,0.0,0.0,70,0.00,CLR,,0.00,WeatherDisplay:10.37,2013-03-05 01:10:00,
2013-03-04 20:15:00,30.8,22.8,22.74,West,274,0.0,0.0,72,0.00,CLR,,0.00,WeatherDisplay:10.37,2013-03-05 01:15:00,
2013-03-04 20:20:00,30.6,22.6,22.74,West,273,0.0,0.0,72,0.00,CLR,,0.00,WeatherDisplay:10.37,2013-03-05 01:20:00,
2013-03-04 20:25:00,30.4,23.1,22.74,West,273,0.0,0.0,74,0.00,CLR,,0.00,WeatherDisplay:10.37,2013-03-05 01:25:00,
2013-03-04 20:30:00,30.2,22.9,22.74,West,273,0.0,0.0,74,0.00,CLR,,0.00,WeatherDisplay:10.37,2013-03-05 01:30:00,
2013-03-04 20:35:00,30.1,22.5,22.74,West,274,0.0,0.0,73,0.00,CLR,,0.00,WeatherDisplay:10.37,2013-03-05 01:35:00,
2013-03-04 20:40:00,30.0,22.4,22.74,West,274,0.0,0.0,73,0.00,CLR,,0.00,WeatherDisplay:10.37,2013-03-05 01:40:00,
2013-03-04 20:45:00,29.9,22.3,22.74,West,273,0.0,0.0,73,0.00,CLR,,0.00,WeatherDisplay:10.37,2013-03-05 01:45:00,
2013-03-04 20:50:00,29.9,22.6,22.74,West,274,0.0,0.0,74,0.00,CLR,,0.00,WeatherDisplay:10.37,2013-03-05 01:50:00,
2013-03-04 20:55:00,29.7,22.4,22.74,West,273,0.0,0.0,74,0.00,CLR,,0.00,WeatherDisplay:10.37,2013-03-05 01:55:00,
2013-03-04 21:00:00,29.5,22.6,22.74,West,273,0.0,0.0,75,0.00,CLR,,0.00,WeatherDisplay:10.37,2013-03-05 02:00:00,
2013-03-04 21:05:00,29.4,22.8,22.74,West,274,0.0,0.0,76,0.00,CLR,,0.00,WeatherDisplay:10.37,2013-03-05 02:05:00,
2013-03-04 21:10:00,29.3,22.7,22.74,West,273,0.0,0.0,76,0.00,CLR,,0.00,WeatherDisplay:10.37,2013-03-05 02:10:00,
2013-03-04 21:15:00,29.2,22.9,22.74,West,274,0.0,0.0,77,0.00,CLR,,0.00,WeatherDisplay:10.37,2013-03-05 02:15:00,
2013-03-04 21:20:00,29.0,22.4,22.74,West,274,1.1,0.0,76,0.00,CLR,,0.00,WeatherDisplay:10.37,2013-03-05 02:20:00,
2013-03-04 21:25:00,28.8,22.5,22.74,West,273,0.0,0.0,77,0.00,CLR,,0.00,WeatherDisplay:10.37,2013-03-05 02:25:00,
2013-03-04 21:30:00,28.7,22.4,22.74,West,274,0.0,0.0,77,0.00,CLR,,0.00,WeatherDisplay:10.37,2013-03-05 02:30:00,
2013-03-04 21:35:00,28.6,22.3,22.74,West,273,0.0,0.0,77,0.00,CLR,,0.00,WeatherDisplay:10.37,2013-03-05 02:35:00,
2013-03-04 21:40:00,28.5,22.5,22.74,West,274,0.0,0.0,78,0.00,CLR,,0.00,WeatherDisplay:10.37,2013-03-05 02:40:00,
2013-03-04 21:45:00,28.4,22.4,22.74,West,274,0.0,0.0,78,0.00,CLR,,0.00,WeatherDisplay:10.37,2013-03-05 02:45:00,
2013-03-04 21:50:00,28.4,22.4,22.74,West,273,0.0,0.0,78,0.00,CLR,,0.00,WeatherDisplay:10.37,2013-03-05 02:50:00,
2013-03-04 21:55:00,28.4,22.7,22.74,West,273,0.0,0.0,79,0.00,CLR,,0.00,WeatherDisplay:10.37,2013-03-05 02:55:00,
2013-03-04 22:00:00,28.3,22.6,22.74,West,274,0.0,0.0,79,0.00,CLR,,0.00,WeatherDisplay:10.37,2013-03-05 03:00:00,
2013-03-04 22:05:00,28.4,23.0,22.74,West,274,0.0,0.0,80,0.00,CLR,,0.00,WeatherDisplay:10.37,2013-03-05 03:05:00,
2013-03-04 22:10:00,28.4,23.0,22.74,West,273,0.0,0.0,80,0.00,CLR,,0.00,WeatherDisplay:10.37,2013-03-05 03:10:00,
2013-03-04 22:15:00,28.4,23.0,22.74,West,274,0.0,0.0,80,0.00,CLR,,0.00,WeatherDisplay:10.37,2013-03-05 03:15:00,
2013-03-04 22:20:00,28.4,23.3,22.74,West,273,0.0,0.0,81,0.00,CLR,,0.00,WeatherDisplay:10.37,2013-03-05 03:20:00,
2013-03-04 22:25:00,28.4,23.0,22.74,West,274,0.0,0.0,80,0.00,CLR,,0.00,WeatherDisplay:10.37,2013-03-05 03:25:00,
2013-03-04 22:30:00,28.3,22.9,22.74,West,274,0.0,0.0,80,0.00,CLR,,0.00,WeatherDisplay:10.37,2013-03-05 03:30:00,
2013-03-04 22:35:00,28.2,22.8,22.74,West,274,0.0,0.0,80,0.00,CLR,,0.00,WeatherDisplay:10.37,2013-03-05 03:35:00,
2013-03-04 22:40:00,28.4,23.9,22.74,West,273,0.0,0.0,83,0.00,CLR,,0.00,WeatherDisplay:10.37,2013-03-05 03:40:00,
2013-03-04 22:45:00,28.8,25.1,22.74,West,274,0.0,0.0,86,0.00,CLR,,0.00,WeatherDisplay:10.37,2013-03-05 03:45:00,
2013-03-04 22:50:00,28.8,24.9,22.74,West,274,0.0,0.0,85,0.00,CLR,,0.00,WeatherDisplay:10.37,2013-03-05 03:50:00,
2013-03-04 22:55:00,28.8,24.3,22.74,West,273,0.0,0.0,83,0.00,CLR,,0.00,WeatherDisplay:10.37,2013-03-05 03:55:00,
2013-03-04 23:00:00,28.7,23.9,22.74,West,274,0.0,0.0,82,0.00,CLR,,0.00,WeatherDisplay:10.37,2013-03-05 04:00:00,
2013-03-04 23:05:00,28.8,24.6,22.74,West,274,0.0,0.0,84,0.00,CLR,,0.00,WeatherDisplay:10.37,2013-03-05 04:05:00,
2013-03-04 23:10:00,28.8,24.6,22.74,West,274,0.0,0.0,84,0.00,CLR,,0.00,WeatherDisplay:10.37,2013-03-05 04:10:00,
2013-03-04 23:15:00,29.0,25.3,31.40,West,273,0.0,0.0,86,0.00,CLR,,0.00,WeatherDisplay:10.37,2013-03-05 04:15:00,
2013-03-04 23:20:00,29.3,25.9,31.40,West,274,0.0,0.0,87,0.00,CLR,,0.00,WeatherDisplay:10.37,2013-03-05 04:20:00,
2013-03-04 23:26:00,29.0,24.8,22.74,West,274,0.0,0.0,84,0.00,CLR,,0.00,WeatherDisplay:10.37,2013-03-05 04:26:00,
2013-03-04 23:31:00,28.7,23.9,22.74,West,273,0.0,0.0,82,0.00,CLR,,0.00,WeatherDisplay:10.37,2013-03-05 04:31:00,
2013-03-04 23:36:00,28.5,23.7,22.74,West,274,0.0,0.0,82,0.00,CLR,,0.00,WeatherDisplay:10.37,2013-03-05 04:36:00,
2013-03-04 23:41:00,28.3,23.2,22.74,West,273,0.0,0.0,81,0.00,CLR,,0.00,WeatherDisplay:10.37,2013-03-05 04:41:00,
2013-03-04 23:46:00,28.2,23.4,22.74,West,274,0.0,0.0,82,0.00,CLR,,0.00,WeatherDisplay:10.37,2013-03-05 04:46:00,
2013-03-04 23:51:00,28.3,24.1,22.74,West,274,0.0,0.0,84,0.00,CLR,,0.00,WeatherDisplay:10.37,2013-03-05 04:51:00,
2013-03-04 23:56:00,28.5,24.3,22.74,West,274,0.0,0.0,84,0.00,CLR,,0.00,WeatherDisplay:10.37,2013-03-05 04:56:00,